createdAt,value
2023-01-31T00:00:22.492Z,71.95
2023-01-31T00:05:27.300Z,60.47
2023-01-31T00:10:32.226Z,69.20
2023-01-31T00:15:39.893Z,76.03
2023-01-31T00:20:44.664Z,99.10
2023-01-31T00:25:50.390Z,63.58
2023-01-31T00:30:57.824Z,51.05
2023-01-31T00:36:02.583Z,44.67
2023-01-31T00:41:08.171Z,50.90
2023-01-31T00:46:15.756Z,59.97
2023-01-31T00:51:21.336Z,64.45
2023-01-31T00:56:27.525Z,55.58
2023-01-31T01:01:35.296Z,44.65
2023-01-31T01:06:42.135Z,62.67
2023-01-31T01:11:48.342Z,57.38
2023-01-31T01:17:00.327Z,67.45
2023-01-31T01:22:05.168Z,63.58
2023-01-31T01:27:09.969Z,90.80
2023-01-31T01:32:25.070Z,49.05
2023-01-31T01:37:30.598Z,65.28
2023-01-31T01:42:44.777Z,42.15
2023-01-31T01:47:58.262Z,42.40
2023-01-31T01:53:17.927Z,36.38
2023-01-31T01:58:25.735Z,31.20
2023-01-31T02:03:33.166Z,23.58
2023-01-31T02:08:38.982Z,23.52
2023-01-31T02:13:44.494Z,16.63
2023-01-31T02:18:52.466Z,18.65
2023-01-31T02:24:14.986Z,19.60
2023-01-31T02:29:40.118Z,14.00
2023-01-31T02:34:54.279Z,14.60
2023-01-31T02:40:03.166Z,12.27
2023-01-31T02:50:33.576Z,15.25
2023-01-31T02:55:52.434Z,13.65
2023-01-31T03:01:00.009Z,12.40
2023-01-31T03:06:28.475Z,16.67
2023-01-31T03:11:49.545Z,12.48
2023-01-31T03:17:08.399Z,13.13
2023-01-31T03:22:17.026Z,16.92
2023-01-31T03:27:25.001Z,12.70
2023-01-31T03:32:33.287Z,12.85
2023-01-31T03:37:40.752Z,12.73
2023-01-31T03:42:49.339Z,11.85
2023-01-31T03:47:54.867Z,10.13
2023-01-31T03:53:01.718Z,13.32
2023-01-31T03:58:09.794Z,13.38
2023-01-31T04:03:17.529Z,10.20
2023-01-31T04:08:22.541Z,11.43
2023-01-31T04:13:29.949Z,12.30
2023-01-31T04:18:37.439Z,10.93
2023-01-31T04:23:43.577Z,11.45
2023-01-31T04:28:50.944Z,10.23
2023-01-31T04:33:56.285Z,12.82
2023-01-31T04:39:01.603Z,10.20
2023-01-31T04:44:09.292Z,11.20
2023-01-31T04:49:14.022Z,11.27
2023-01-31T04:54:18.835Z,11.00
2023-01-31T04:59:26.357Z,11.50
2023-01-31T05:04:31.580Z,8.98
2023-01-31T05:09:36.333Z,10.05
2023-01-31T05:14:43.684Z,8.20
2023-01-31T05:19:49.043Z,9.77
2023-01-31T05:24:54.851Z,9.50
2023-01-31T05:30:05.825Z,9.40
2023-01-31T05:35:11.086Z,11.23
2023-01-31T05:40:16.848Z,10.05
2023-01-31T05:45:24.177Z,11.05
2023-01-31T05:50:28.971Z,12.57
2023-01-31T05:55:33.760Z,16.65
2023-01-31T06:00:41.153Z,11.93
2023-01-31T06:05:45.975Z,8.73
2023-01-31T06:10:50.669Z,8.80
2023-01-31T06:15:58.091Z,9.30
2023-01-31T06:21:02.762Z,10.68
2023-01-31T06:26:07.596Z,10.02
2023-01-31T06:31:15.643Z,10.10
2023-01-31T06:36:20.567Z,10.63
2023-01-31T06:41:25.525Z,10.38
2023-01-31T06:46:33.047Z,12.10
2023-01-31T06:51:37.931Z,6.57
2023-01-31T06:56:42.780Z,7.15
2023-01-31T07:01:50.271Z,7.85
2023-01-31T07:06:55.228Z,10.98
2023-01-31T07:11:59.986Z,8.57
2023-01-31T07:17:07.406Z,8.52
2023-01-31T07:22:12.225Z,10.10
2023-01-31T07:27:17.137Z,9.20
2023-01-31T07:32:24.589Z,10.40
2023-01-31T07:37:29.959Z,10.70
2023-01-31T07:42:34.866Z,7.50
2023-01-31T07:47:42.982Z,11.90
2023-01-31T07:52:49.331Z,9.25
2023-01-31T07:57:54.224Z,8.80
2023-01-31T08:03:13.964Z,9.95
2023-01-31T08:08:21.347Z,7.45
2023-01-31T08:13:27.111Z,12.50
2023-01-31T08:18:34.523Z,10.55
2023-01-31T08:23:41.207Z,11.23
2023-01-31T08:28:46.909Z,8.93
2023-01-31T08:33:54.445Z,12.60
2023-01-31T08:38:59.272Z,9.60
2023-01-31T08:44:11.626Z,13.98
2023-01-31T08:49:19.175Z,13.65
2023-01-31T08:54:24.104Z,7.70
2023-01-31T08:59:30.071Z,12.77
2023-01-31T09:04:37.861Z,9.63
2023-01-31T09:09:43.755Z,16.92
2023-01-31T09:14:48.851Z,5.80
2023-01-31T09:19:56.542Z,5.50
2023-01-31T09:25:01.343Z,7.22
2023-01-31T09:30:06.504Z,9.32
2023-01-31T09:35:15.008Z,16.38
2023-01-31T09:40:23.962Z,7.13
2023-01-31T09:45:32.071Z,5.90
2023-01-31T09:50:43.554Z,10.65
2023-01-31T09:55:52.025Z,3.92
2023-01-31T10:01:00.485Z,6.25
2023-01-31T10:06:13.670Z,9.45
2023-01-31T10:11:22.401Z,3.70
2023-01-31T10:16:30.461Z,3.88
2023-01-31T10:21:39.263Z,5.93
2023-01-31T10:26:45.715Z,9.50
2023-01-31T10:31:53.941Z,5.57
2023-01-31T10:37:02.937Z,7.00
2023-01-31T10:42:12.333Z,5.80
2023-01-31T10:47:18.202Z,10.97
2023-01-31T10:52:36.134Z,16.23
2023-01-31T10:57:41.393Z,7.65
2023-01-31T11:02:46.644Z,4.60
2023-01-31T11:07:54.163Z,12.02
2023-01-31T11:13:02.208Z,11.68
2023-01-31T11:18:08.593Z,4.40
2023-01-31T11:23:17.332Z,6.47
2023-01-31T11:28:24.007Z,9.43
2023-01-31T11:33:41.864Z,6.15
2023-01-31T11:38:49.583Z,16.67
2023-01-31T11:43:55.511Z,4.20
2023-01-31T11:49:00.730Z,5.15
2023-01-31T11:54:11.430Z,3.92
2023-01-31T11:59:19.952Z,1.20
2023-01-31T12:04:26.666Z,2.28
2023-01-31T12:09:41.266Z,4.63
2023-01-31T12:14:53.800Z,7.47
2023-01-31T12:20:21.323Z,4.80
2023-01-31T12:25:44.090Z,3.30
2023-01-31T12:30:57.770Z,1.55
2023-01-31T12:36:10.549Z,1.80
2023-01-31T12:41:22.675Z,3.33
2023-01-31T12:52:15.907Z,2.67
2023-01-31T12:57:41.756Z,4.80
2023-01-31T13:03:12.813Z,3.25
2023-01-31T13:14:00.909Z,5.55
2023-01-31T13:19:06.842Z,3.65
2023-01-31T13:24:15.863Z,1.88
2023-01-31T13:29:41.282Z,2.85
2023-01-31T13:34:52.739Z,1.90
2023-01-31T13:39:58.751Z,4.22
2023-01-31T13:45:05.124Z,5.18
2023-01-31T13:50:33.042Z,5.82
2023-01-31T13:55:40.330Z,6.65
2023-01-31T14:12:34.716Z,22.85
2023-01-31T14:17:54.370Z,3.85
2023-01-31T14:23:19.679Z,5.35
2023-01-31T14:28:27.115Z,4.53
2023-01-31T14:33:32.260Z,5.20
2023-01-31T14:38:47.658Z,4.47
2023-01-31T14:44:02.343Z,3.33
2023-01-31T14:49:39.426Z,4.47
2023-01-31T14:55:09.622Z,2.67
2023-01-31T15:00:21.901Z,5.00
2023-01-31T15:05:42.792Z,3.58
2023-01-31T15:10:58.291Z,4.80
2023-01-31T15:16:03.514Z,6.57
2023-01-31T15:21:24.825Z,4.55
2023-01-31T15:26:31.650Z,4.03
2023-01-31T15:31:41.275Z,5.38
2023-01-31T15:48:32.243Z,8.32
2023-01-31T16:16:58.008Z,10.35
2023-01-31T16:33:04.118Z,13.75
2023-01-31T16:38:23.729Z,14.00
2023-01-31T17:00:33.259Z,9.98
2023-01-31T17:05:41.475Z,20.35
2023-01-31T17:11:04.270Z,13.27
2023-01-31T17:16:24.429Z,13.88
2023-01-31T17:21:48.518Z,16.02
2023-01-31T17:26:56.399Z,9.35
2023-01-31T17:32:01.774Z,9.07
2023-01-31T17:37:06.943Z,7.43
2023-01-31T17:42:19.992Z,23.08
2023-01-31T17:47:27.486Z,34.05
2023-01-31T17:52:39.095Z,18.15
2023-01-31T17:57:46.706Z,17.50
2023-01-31T18:03:21.560Z,24.40
2023-01-31T18:19:28.960Z,13.27
2023-01-31T18:30:11.301Z,18.52
2023-01-31T18:40:42.474Z,15.82
2023-01-31T19:02:06.793Z,118.72
2023-01-31T19:07:11.535Z,18.90
2023-01-31T19:12:44.288Z,17.02
2023-01-31T19:18:41.310Z,12.27
2023-01-31T19:23:51.456Z,12.40
2023-01-31T19:28:56.568Z,18.42
2023-01-31T19:34:02.453Z,15.43
2023-01-31T19:39:10.650Z,14.85
2023-01-31T19:44:15.286Z,10.68
2023-01-31T19:49:20.351Z,12.73
2023-01-31T19:54:33.285Z,11.80
2023-01-31T19:59:38.587Z,12.18
2023-01-31T20:04:43.591Z,12.10
2023-01-31T20:09:50.872Z,16.00
2023-01-31T20:15:09.615Z,24.58
2023-01-31T20:26:01.150Z,18.05
2023-01-31T20:31:09.561Z,22.23
2023-01-31T20:36:14.555Z,43.35
2023-01-31T20:41:19.517Z,14.75
2023-01-31T20:46:30.005Z,19.88
2023-01-31T20:51:35.016Z,17.52
2023-01-31T21:02:07.022Z,19.35
2023-01-31T21:23:46.132Z,30.95
2023-01-31T21:28:53.383Z,82.32
2023-01-31T21:33:58.274Z,63.85
2023-01-31T21:39:06.226Z,49.42
2023-01-31T21:44:11.145Z,49.13
2023-01-31T21:49:15.775Z,30.17
2023-01-31T21:54:23.019Z,42.40
2023-01-31T21:59:27.903Z,41.72
2023-01-31T22:04:32.655Z,63.55
2023-01-31T22:09:39.852Z,36.78
2023-01-31T22:14:44.580Z,32.00
2023-01-31T22:19:49.215Z,36.78
2023-01-31T22:24:56.643Z,100.40
2023-01-31T22:30:15.025Z,42.72
2023-01-31T22:35:19.896Z,44.05
2023-01-31T22:40:27.141Z,29.33
2023-01-31T22:45:31.743Z,52.03
2023-01-31T22:50:36.284Z,47.88
2023-01-31T22:55:44.311Z,38.97
2023-01-31T23:00:49.181Z,31.88
2023-01-31T23:05:53.811Z,46.72
2023-01-31T23:11:06.025Z,37.25
2023-01-31T23:16:13.795Z,24.70
2023-01-31T23:21:19.819Z,27.17
2023-01-31T23:26:27.270Z,41.45
2023-01-31T23:31:32.690Z,39.25
2023-01-31T23:36:37.522Z,41.90
2023-01-31T23:41:45.345Z,34.28
2023-01-31T23:46:51.136Z,34.63
2023-01-31T23:51:55.935Z,24.08
2023-01-31T23:57:03.321Z,48.17
